Time;durP1;ratioP1;P1;durP2;ratioP2;P2;SDS_P1;SDS_P2;PMS_P1;PMS_P2;Temp;Humidity;BMP_temperature;BMP_pressure;BME280_temperature;BME280_humidity;BME280_pressure;Samples;Min_cycle;Max_cycle;Signal;HPM_P1;HPM_P2
2021/10/18 00:08:51;;;;;;;0.20;0.20;;;18.40;99.90;;;;;;20358122;23;20248;-67
2021/10/18 00:18:57;;;;;;;0.37;0.37;;;18.30;99.90;;;;;;20344327;29;20221;-67
2021/10/18 00:29:00;;;;;;;0.43;0.40;;;18.30;99.90;;;;;;20344537;29;20237;-68
2021/10/18 00:39:06;;;;;;;0.20;0.10;;;18.30;99.90;;;;;;20342435;29;20207;-67
2021/10/18 00:49:09;;;;;;;3.10;0.63;;;18.10;99.90;;;;;;20342633;29;20226;-67
2021/10/18 00:59:15;;;;;;;0.43;0.43;;;18.00;99.90;;;;;;20424743;23;20284;-72
2021/10/18 01:09:18;;;;;;;0.50;0.43;;;17.80;99.90;;;;;;20418984;29;20229;-71
2021/10/18 01:19:23;;;;;;;0.70;0.70;;;17.50;99.90;;;;;;20419630;29;20194;-71
2021/10/18 01:29:32;;;;;;;0.20;0.20;;;17.40;99.90;;;;;;20340634;29;20236;-72
2021/10/18 01:39:36;;;;;;;0.60;0.30;;;17.30;99.90;;;;;;20338586;29;20293;-72
2021/10/18 01:49:41;;;;;;;0.30;0.30;;;17.50;99.90;;;;;;20337972;29;20691;-72
2021/10/18 01:59:45;;;;;;;0.20;0.13;;;17.50;99.90;;;;;;20351052;23;20317;-67
2021/10/18 02:09:52;;;;;;;1.13;0.60;;;17.70;99.90;;;;;;20335480;29;20324;-69
2021/10/18 02:19:56;;;;;;;0.50;0.50;;;17.60;99.90;;;;;;20337819;29;20206;-68
2021/10/18 02:30:03;;;;;;;0.70;0.70;;;17.50;99.90;;;;;;20335703;29;20312;-68
2021/10/18 02:40:07;;;;;;;0.20;0.20;;;17.60;99.90;;;;;;20349392;29;20190;-69
2021/10/18 02:50:12;;;;;;;0.20;0.20;;;17.70;99.90;;;;;;20349869;29;20230;-69
2021/10/18 03:00:16;;;;;;;0.20;0.20;;;17.80;99.90;;;;;;20351120;29;20238;-69
2021/10/18 03:10:22;;;;;;;0.30;0.30;;;17.70;99.90;;;;;;20362374;29;20226;-69
2021/10/18 03:20:25;;;;;;;0.40;0.40;;;17.60;99.90;;;;;;20355032;29;20222;-70
2021/10/18 03:30:31;;;;;;;0.47;0.47;;;17.50;99.90;;;;;;20348274;29;20272;-70
2021/10/18 03:40:34;;;;;;;7.00;1.00;;;17.50;99.90;;;;;;20348126;29;20201;-67
2021/10/18 03:50:39;;;;;;;1.17;1.17;;;17.50;99.90;;;;;;20346503;29;20285;-67
2021/10/18 04:00:43;;;;;;;1.17;1.07;;;17.50;99.90;;;;;;20346777;29;20265;-66
2021/10/18 04:10:48;;;;;;;0.93;0.83;;;17.40;99.90;;;;;;20345414;29;20637;-67
2021/10/18 04:20:55;;;;;;;1.27;1.13;;;17.30;99.90;;;;;;20343833;29;20261;-68
2021/10/18 04:30:59;;;;;;;2.43;1.43;;;17.00;99.90;;;;;;20343843;29;20226;-67
2021/10/18 04:41:03;;;;;;;0.70;0.70;;;16.90;99.90;;;;;;20344081;29;20198;-67
2021/10/18 04:51:08;;;;;;;0.87;0.77;;;16.90;99.90;;;;;;20341865;29;20313;-67
2021/10/18 05:01:12;;;;;;;0.40;0.33;;;16.70;99.90;;;;;;20340439;29;20313;-68
2021/10/18 05:11:17;;;;;;;0.40;0.40;;;16.80;99.90;;;;;;20340765;29;20632;-69
2021/10/18 05:21:21;;;;;;;10.27;0.83;;;16.70;99.90;;;;;;20338925;29;20230;-68
2021/10/18 05:31:26;;;;;;;0.20;0.20;;;16.90;99.90;;;;;;20342573;29;20257;-68
2021/10/18 05:41:29;;;;;;;0.30;0.30;;;16.90;99.90;;;;;;20338808;29;20607;-67
2021/10/18 05:51:36;;;;;;;0.20;0.17;;;16.80;99.90;;;;;;20335229;29;20249;-67
2021/10/18 06:01:40;;;;;;;0.30;0.30;;;16.80;99.90;;;;;;20332549;29;20237;-67
2021/10/18 06:11:45;;;;;;;0.50;0.50;;;16.80;99.90;;;;;;20313978;29;20317;-68
2021/10/18 06:21:48;;;;;;;0.70;0.70;;;16.90;99.90;;;;;;20253836;29;20237;-67
2021/10/18 06:31:53;;;;;;;1.23;1.13;;;17.00;99.90;;;;;;20277064;29;20282;-67
2021/10/18 06:41:57;;;;;;;0.77;0.77;;;17.10;99.90;;;;;;20256504;29;20683;-69
2021/10/18 06:52:02;;;;;;;0.73;0.73;;;17.30;99.90;;;;;;20271078;29;20316;-67
2021/10/18 07:02:06;;;;;;;1.23;1.13;;;17.60;99.90;;;;;;20332347;29;20237;-68
2021/10/18 07:12:11;;;;;;;1.90;0.80;;;18.00;99.90;;;;;;20332877;29;20316;-67
2021/10/18 07:22:14;;;;;;;1.87;0.83;;;18.20;99.90;;;;;;20335086;29;20198;-68
2021/10/18 07:32:19;;;;;;;1.10;0.93;;;18.60;99.90;;;;;;20346262;29;20313;-67
2021/10/18 07:42:23;;;;;;;0.50;0.40;;;18.70;99.90;;;;;;20345926;29;20210;-67
2021/10/18 07:52:28;;;;;;;0.63;0.63;;;19.30;99.90;;;;;;20334373;29;20316;-69
2021/10/18 08:02:32;;;;;;;1.70;1.17;;;19.90;99.90;;;;;;20345662;29;20230;-69
2021/10/18 08:12:37;;;;;;;0.83;0.83;;;20.50;99.90;;;;;;20335011;29;20227;-68
2021/10/18 08:22:41;;;;;;;2.10;1.37;;;20.70;99.90;;;;;;20314878;29;20282;-68
2021/10/18 08:32:46;;;;;;;1.03;1.03;;;20.70;99.90;;;;;;20307014;29;20237;-68
2021/10/18 08:42:57;;;;;;;1.75;0.60;;;21.20;99.90;;;;;;20264864;29;20529;-68
2021/10/18 08:53:04;;;;;;;0.68;0.68;;;21.50;99.90;;;;;;20283392;29;20226;-67
2021/10/18 09:03:19;;;;;;;1.48;0.35;;;21.60;99.90;;;;;;20339341;29;20344;-68
2021/10/18 09:13:24;;;;;;;0.30;0.30;;;21.00;99.90;;;;;;20337763;29;20317;-67
2021/10/18 09:23:32;;;;;;;1.43;1.10;;;20.60;99.90;;;;;;20338583;29;20226;-67
2021/10/18 09:33:39;;;;;;;0.83;0.83;;;20.50;99.90;;;;;;20342468;29;20647;-68
2021/10/18 09:43:56;;;;;;;1.70;0.87;;;20.60;99.90;;;;;;20349425;29;20741;-67
2021/10/18 10:57:13;;;;;;;0.77;0.77;;;24.10;99.90;;;;;;20312369;29;20238;-67
2021/10/18 11:07:36;;;;;;;2.05;1.33;;;24.80;99.90;;;;;;20348623;29;20261;-67
2021/10/18 11:17:46;;;;;;;0.47;0.47;;;25.20;99.90;;;;;;20347550;29;20313;-69
2021/10/18 11:27:53;;;;;;;0.40;0.30;;;25.10;99.90;;;;;;20346471;29;20201;-67
2021/10/18 11:38:00;;;;;;;0.25;0.25;;;25.40;99.90;;;;;;20345734;29;20225;-68
2021/10/18 11:48:09;;;;;;;1.42;0.95;;;25.50;99.90;;;;;;20345232;29;20622;-68
2021/10/18 11:58:18;;;;;;;1.40;1.05;;;25.40;99.90;;;;;;20345160;29;20198;-68
2021/10/18 12:08:26;;;;;;;3.58;1.00;;;25.50;99.90;;;;;;20314612;29;20247;-68
2021/10/18 12:18:32;;;;;;;0.65;0.65;;;26.10;99.90;;;;;;20262285;29;20211;-67
2021/10/18 12:28:42;;;;;;;0.70;0.70;;;26.10;99.90;;;;;;20259501;29;20218;-69
2021/10/18 12:38:48;;;;;;;1.10;0.57;;;26.60;99.90;;;;;;20253154;29;20199;-68
2021/10/18 12:49:00;;;;;;;0.93;0.82;;;27.00;99.90;;;;;;20266629;29;20704;-69
2021/10/18 12:59:11;;;;;;;0.25;0.25;;;27.40;99.90;;;;;;20328480;29;20711;-70
2021/10/18 13:09:15;;;;;;;0.63;0.63;;;27.70;99.90;;;;;;20302203;29;20696;-68
2021/10/18 13:19:20;;;;;;;1.42;1.33;;;26.30;99.90;;;;;;20258365;29;20282;-70
2021/10/18 13:29:24;;;;;;;1.20;0.70;;;27.40;99.90;;;;;;20262815;29;20226;-69
2021/10/18 13:39:29;;;;;;;0.52;0.47;;;27.40;99.90;;;;;;20291888;29;20660;-68
2021/10/18 13:49:33;;;;;;;1.38;1.13;;;26.90;99.90;;;;;;20333882;29;20714;-68
2021/10/18 13:59:41;;;;;;;0.68;0.68;;;27.50;99.90;;;;;;20333159;29;20321;-68
2021/10/18 14:09:45;;;;;;;0.50;0.50;;;28.60;99.90;;;;;;20295266;29;20708;-67
2021/10/18 14:19:51;;;;;;;0.60;0.60;;;28.30;99.90;;;;;;20253579;29;20529;-67
2021/10/18 14:29:55;;;;;;;0.80;0.80;;;28.60;99.90;;;;;;20254545;29;20265;-68
2021/10/18 14:40:00;;;;;;;0.63;0.47;;;28.60;99.90;;;;;;20252452;29;20305;-68
2021/10/18 14:50:05;;;;;;;0.82;0.60;;;28.50;99.90;;;;;;20251391;29;20353;-69
2021/10/18 15:00:11;;;;;;;2.20;1.38;;;28.10;99.90;;;;;;20327410;29;20218;-68
2021/10/18 15:10:15;;;;;;;1.00;0.47;;;27.90;99.90;;;;;;20287273;29;20227;-67
2021/10/18 15:20:21;;;;;;;1.67;1.50;;;26.20;99.90;;;;;;20252890;29;20203;-69
2021/10/18 15:30:25;;;;;;;3.35;2.28;;;25.00;99.90;;;;;;20252340;29;20764;-67
2021/10/18 15:40:30;;;;;;;0.70;0.60;;;24.80;99.90;;;;;;20252597;29;20211;-68
2021/10/18 15:50:35;;;;;;;0.65;0.65;;;24.10;99.90;;;;;;20306277;29;20703;-69
2021/10/18 16:00:40;;;;;;;0.20;0.10;;;23.90;99.90;;;;;;20341857;29;20696;-69
2021/10/18 16:10:44;;;;;;;0.20;0.10;;;23.60;99.90;;;;;;20341215;29;20284;-67
2021/10/18 16:20:50;;;;;;;0.20;0.20;;;23.30;99.90;;;;;;20340563;29;20210;-67
2021/10/18 16:30:54;;;;;;;0.60;0.60;;;23.00;99.90;;;;;;20327475;29;20683;-67
2021/10/18 16:41:00;;;;;;;0.50;0.40;;;22.80;99.90;;;;;;20338720;29;20202;-68
2021/10/18 16:51:04;;;;;;;0.57;0.40;;;22.70;99.90;;;;;;20335805;29;20231;-67
2021/10/18 17:01:09;;;;;;;0.30;0.30;;;22.40;99.90;;;;;;20337228;29;20260;-67
2021/10/18 17:11:18;;;;;;;0.45;0.43;;;21.80;99.90;;;;;;20287575;29;20235;-70
2021/10/18 17:21:23;;;;;;;1.10;0.63;;;21.80;99.90;;;;;;20271775;29;20226;-66
2021/10/18 17:31:26;;;;;;;0.53;0.53;;;21.60;99.90;;;;;;20255359;29;20241;-67
2021/10/18 17:41:33;;;;;;;0.63;0.63;;;21.10;99.90;;;;;;20254434;29;20198;-67
2021/10/18 17:51:36;;;;;;;0.63;0.50;;;21.10;99.90;;;;;;20266535;29;20257;-66
2021/10/18 18:01:42;;;;;;;1.53;1.13;;;20.60;99.90;;;;;;20312228;29;20329;-68
2021/10/18 18:11:45;;;;;;;2.17;0.70;;;20.40;99.90;;;;;;20250769;29;20330;-68
2021/10/18 18:21:51;;;;;;;2.13;0.50;;;20.10;99.90;;;;;;20252465;29;20610;-67
2021/10/18 18:31:54;;;;;;;0.63;0.63;;;19.80;99.90;;;;;;20254646;29;20237;-68
2021/10/18 18:41:59;;;;;;;1.90;0.70;;;19.60;99.90;;;;;;20254142;29;20737;-69
2021/10/18 18:52:03;;;;;;;1.37;1.23;;;19.50;99.90;;;;;;20300703;29;20225;-68
2021/10/18 19:02:09;;;;;;;0.80;0.80;;;19.20;99.90;;;;;;20330728;29;20226;-67
2021/10/18 19:12:15;;;;;;;2.13;0.33;;;19.30;99.90;;;;;;20330879;29;20562;-68
2021/10/18 19:22:20;;;;;;;2.80;1.17;;;19.00;99.90;;;;;;20307370;29;20266;-68
2021/10/18 19:32:23;;;;;;;0.30;0.30;;;18.80;99.90;;;;;;20328554;29;20325;-68
2021/10/18 19:42:28;;;;;;;1.37;0.73;;;19.00;99.90;;;;;;20344530;29;20209;-67
2021/10/18 19:52:32;;;;;;;0.67;0.57;;;18.80;99.90;;;;;;20342217;29;20713;-66
2021/10/18 20:02:38;;;;;;;0.80;0.80;;;18.60;99.90;;;;;;20327097;29;20234;-69
2021/10/18 20:12:44;;;;;;;0.60;0.60;;;18.60;99.90;;;;;;20359159;29;20238;-69
2021/10/18 20:22:49;;;;;;;2.67;2.17;;;18.50;99.90;;;;;;20351368;29;20202;-69
2021/10/18 20:32:53;;;;;;;2.17;0.57;;;18.40;99.90;;;;;;20342488;29;20225;-69
2021/10/18 20:42:59;;;;;;;0.20;0.10;;;18.40;99.90;;;;;;20341918;29;20206;-68
2021/10/18 20:53:05;;;;;;;0.70;0.67;;;18.40;99.90;;;;;;20347505;29;20684;-67
2021/10/18 21:03:11;;;;;;;0.20;0.20;;;18.30;99.90;;;;;;20345880;29;20297;-68
2021/10/18 21:13:14;;;;;;;0.83;0.63;;;18.10;99.90;;;;;;20341932;29;20696;-68
2021/10/18 21:23:19;;;;;;;0.57;0.43;;;18.00;99.90;;;;;;20336794;29;20221;-68
2021/10/18 21:33:23;;;;;;;0.60;0.60;;;18.10;99.90;;;;;;20340680;29;20343;-67
2021/10/18 21:43:28;;;;;;;0.37;0.33;;;18.00;99.90;;;;;;20339852;29;20685;-69
2021/10/18 21:53:35;;;;;;;0.50;0.30;;;17.90;99.90;;;;;;20336550;29;20306;-69
2021/10/18 22:03:40;;;;;;;0.33;0.33;;;17.90;99.90;;;;;;20338145;29;20334;-69
2021/10/18 22:13:45;;;;;;;0.40;0.40;;;17.80;99.90;;;;;;20337915;29;20245;-67
2021/10/18 22:23:52;;;;;;;0.20;0.20;;;17.80;99.90;;;;;;20337210;29;20285;-68
2021/10/18 22:33:56;;;;;;;0.70;0.60;;;17.70;99.90;;;;;;20335399;29;20225;-68
2021/10/18 22:44:01;;;;;;;0.20;0.10;;;17.90;99.90;;;;;;20335457;29;20640;-68
2021/10/18 22:54:04;;;;;;;0.60;0.60;;;17.80;99.90;;;;;;20345707;29;20640;-68
2021/10/18 23:04:10;;;;;;;0.20;0.10;;;17.80;99.90;;;;;;20349895;29;20710;-68
2021/10/18 23:14:13;;;;;;;0.73;0.73;;;17.80;99.90;;;;;;20350800;29;20234;-68
2021/10/18 23:24:19;;;;;;;0.50;0.50;;;18.00;99.90;;;;;;20348883;29;20659;-68
2021/10/18 23:34:23;;;;;;;0.77;0.77;;;17.90;99.90;;;;;;20375784;29;20707;-69
2021/10/18 23:44:28;;;;;;;0.93;0.53;;;17.80;99.90;;;;;;20349194;29;20241;-68
2021/10/18 23:54:32;;;;;;;0.43;0.43;;;17.70;99.90;;;;;;20346324;29;20747;-69
